Time;durP1;ratioP1;P1;durP2;ratioP2;P2;SDS_P1;SDS_P2;PMS_P1;PMS_P2;Temp;Humidity;BMP_temperature;BMP_pressure;BME280_temperature;BME280_humidity;BME280_pressure;Samples;Min_cycle;Max_cycle;Signal;HPM_P1;HPM_P2
2023/03/22 00:02:05;;;;;;;;;;;;;;;;;;4997888;28;19924;-88
2023/03/22 00:04:52;;;;;;;;;;;;;;;;;;5000104;28;20008;-88
2023/03/22 00:07:39;;;;;;;;;;;;;;;;;;5007515;28;20388;-89
2023/03/22 00:10:27;;;;;;;;;;;;;;;;;;4997130;28;20281;-89
2023/03/22 00:13:14;;;;;;;;;;;;;;;;;;4990474;28;20478;-89
2023/03/22 00:16:01;;;;;;;;;;;;;;;;;;5001484;28;19927;-90
2023/03/22 00:18:48;;;;;;;;;;;;;;;;;;5005066;28;20369;-88
2023/03/22 00:21:34;;;;;;;;;;;;;;;;;;4959507;28;19921;-91
2023/03/22 00:24:21;;;;;;;;;;;;;;;;;;5004464;28;19925;-91
2023/03/22 00:27:07;;;;;;;;;;;;;;;;;;4994099;28;19922;-91
2023/03/22 00:29:54;;;;;;;;;;;;;;;;;;5000649;28;19920;-91
2023/03/22 00:32:43;;;;;;;;;;;;;;;;;;5004267;28;19924;-90
2023/03/22 00:35:29;;;;;;;;;;;;;;;;;;4995210;28;19922;-91
2023/03/22 00:38:16;;;;;;;;;;;;;;;;;;4992316;28;20638;-88
2023/03/22 00:41:02;;;;;;;;;;;;;;;;;;5001671;28;19924;-89
2023/03/22 00:43:49;;;;;;;;;;;;;;;;;;5004210;28;19918;-88
2023/03/22 00:46:36;;;;;;;;;;;;;;;;;;4996560;28;20467;-88
2023/03/22 00:49:24;;;;;;;;;;;;;;;;;;4998276;28;19937;-87
2023/03/22 00:52:10;;;;;;;;;;;;;;;;;;4994722;28;19925;-88
2023/03/22 00:54:57;;;;;;;;;;;;;;;;;;5005302;28;20582;-88
2023/03/22 00:57:43;;;;;;;;;;;;;;;;;;5001830;28;19925;-88
2023/03/22 01:00:32;;;;;;;;;;;;;;;;;;5000763;28;19914;-87
2023/03/22 01:03:20;;;;;;;;;;;;;;;;;;5004124;28;19924;-85
2023/03/22 01:06:07;;;;;;;;;;;;;;;;;;4999321;28;19917;-88
2023/03/22 01:08:54;;;;;;;;;;;;;;;;;;5000657;28;19921;-86
2023/03/22 01:11:40;;;;;;;;;;;;;;;;;;5005055;28;19917;-88
2023/03/22 01:14:26;;;;;;;;;;;;;;;;;;5001346;28;19929;-88
2023/03/22 01:17:13;;;;;;;;;;;;;;;;;;5005326;28;19929;-80
2023/03/22 01:19:59;;;;;;;;;;;;;;;;;;4990386;28;19923;-89
2023/03/22 01:22:46;;;;;;;;;;;;;;;;;;4999187;28;19917;-90
2023/03/22 01:25:32;;;;;;;;;;;;;;;;;;5007313;28;19917;-90
2023/03/22 01:28:19;;;;;;;;;;;;;;;;;;4994223;28;19913;-88
2023/03/22 01:31:05;;;;;;;;;;;;;;;;;;5004529;28;19917;-88
2023/03/22 01:33:52;;;;;;;;;;;;;;;;;;5004224;28;19918;-89
2023/03/22 01:36:39;;;;;;;;;;;;;;;;;;5008984;28;19956;-87
2023/03/22 01:39:26;;;;;;;;;;;;;;;;;;4987248;28;19918;-88
2023/03/22 01:42:13;;;;;;;;;;;;;;;;;;5008244;28;19917;-88
2023/03/22 01:44:59;;;;;;;;;;;;;;;;;;5008383;28;20505;-87
2023/03/22 01:47:46;;;;;;;;;;;;;;;;;;5000148;28;19944;-87
2023/03/22 01:50:32;;;;;;;;;;;;;;;;;;4999707;28;19932;-87
2023/03/22 01:53:22;;;;;;;;;;;;;;;;;;5006077;28;19917;-85
2023/03/22 01:56:08;;;;;;;;;;;;;;;;;;5005275;28;19924;-88
2023/03/22 01:58:55;;;;;;;;;;;;;;;;;;4995306;28;19917;-89
2023/03/22 02:01:45;;;;;;;;;;;;;;;;;;5006934;28;19932;-87
2023/03/22 02:04:33;;;;;;;;;;;;;;;;;;4994531;28;20377;-87
2023/03/22 02:07:25;;;;;;;;;;;;;;;;;;5000513;28;19924;-87
2023/03/22 02:10:12;;;;;;;;;;;;;;;;;;5005688;28;19917;-88
2023/03/22 02:12:58;;;;;;;;;;;;;;;;;;5004198;28;19917;-87
2023/03/22 02:15:45;;;;;;;;;;;;;;;;;;5008267;28;19921;-88
2023/03/22 02:18:32;;;;;;;;;;;;;;;;;;5001632;28;19926;-87
2023/03/22 02:21:18;;;;;;;;;;;;;;;;;;5004806;28;19924;-86
2023/03/22 02:24:05;;;;;;;;;;;;;;;;;;5001308;28;20297;-87
2023/03/22 02:26:52;;;;;;;;;;;;;;;;;;5004234;28;19921;-88
2023/03/22 02:29:38;;;;;;;;;;;;;;;;;;5001128;28;19917;-88
2023/03/22 02:32:25;;;;;;;;;;;;;;;;;;4992637;28;19917;-89
2023/03/22 02:35:11;;;;;;;;;;;;;;;;;;5000764;28;19925;-88
2023/03/22 02:37:58;;;;;;;;;;;;;;;;;;5003297;28;19929;-88
2023/03/22 02:40:44;;;;;;;;;;;;;;;;;;5000663;28;20448;-90
2023/03/22 02:43:33;;;;;;;;;;;;;;;;;;5000541;28;19924;-89
2023/03/22 02:46:19;;;;;;;;;;;;;;;;;;4993922;28;19921;-88
2023/03/22 02:49:06;;;;;;;;;;;;;;;;;;4993351;28;20389;-90
2023/03/22 02:51:53;;;;;;;;;;;;;;;;;;4998785;28;19921;-89
2023/03/22 02:54:40;;;;;;;;;;;;;;;;;;4998103;28;19918;-88
2023/03/22 02:57:26;;;;;;;;;;;;;;;;;;5005266;28;20385;-91
2023/03/22 03:00:13;;;;;;;;;;;;;;;;;;5006465;28;19922;-88
2023/03/22 03:02:59;;;;;;;;;;;;;;;;;;5000425;28;19918;-89
2023/03/22 03:05:46;;;;;;;;;;;;;;;;;;5004916;28;19922;-89
2023/03/22 03:08:32;;;;;;;;;;;;;;;;;;4998062;28;20380;-88
2023/03/22 03:11:20;;;;;;;;;;;;;;;;;;5000462;28;19917;-89
2023/03/22 03:14:06;;;;;;;;;;;;;;;;;;5005307;28;19925;-90
2023/03/22 03:16:52;;;;;;;;;;;;;;;;;;5001703;28;19925;-92
2023/03/22 03:19:39;;;;;;;;;;;;;;;;;;4983484;28;20503;-89
2023/03/22 03:22:26;;;;;;;;;;;;;;;;;;5002477;28;20389;-88
2023/03/22 03:25:12;;;;;;;;;;;;;;;;;;5000455;28;20373;-88
2023/03/22 03:27:59;;;;;;;;;;;;;;;;;;4999347;28;20583;-91
2023/03/22 03:30:45;;;;;;;;;;;;;;;;;;4999511;28;19917;-90
2023/03/22 03:33:32;;;;;;;;;;;;;;;;;;5004084;28;19951;-88
2023/03/22 03:36:18;;;;;;;;;;;;;;;;;;4997289;28;19921;-88
2023/03/22 03:39:05;;;;;;;;;;;;;;;;;;5008313;28;19917;-89
2023/03/22 03:41:51;;;;;;;;;;;;;;;;;;4998731;28;19917;-85
2023/03/22 03:44:38;;;;;;;;;;;;;;;;;;4996955;28;19924;-84
2023/03/22 03:47:24;;;;;;;;;;;;;;;;;;5004660;28;19914;-85
2023/03/22 03:50:11;;;;;;;;;;;;;;;;;;5000672;28;20277;-87
2023/03/22 03:52:57;;;;;;;;;;;;;;;;;;4991350;28;19918;-86
2023/03/22 03:55:45;;;;;;;;;;;;;;;;;;5005143;28;19952;-87
2023/03/22 03:58:31;;;;;;;;;;;;;;;;;;4988854;28;19922;-87
2023/03/22 04:01:18;;;;;;;;;;;;;;;;;;5006753;28;19928;-88
2023/03/22 04:04:05;;;;;;;;;;;;;;;;;;5006155;28;19921;-86
2023/03/22 04:06:51;;;;;;;;;;;;;;;;;;4995951;28;20020;-86
2023/03/22 04:09:39;;;;;;;;;;;;;;;;;;4999970;28;20389;-86
2023/03/22 04:12:25;;;;;;;;;;;;;;;;;;5002266;28;19920;-87
2023/03/22 04:15:12;;;;;;;;;;;;;;;;;;4992852;28;19929;-90
2023/03/22 04:17:58;;;;;;;;;;;;;;;;;;5013988;28;19930;-91
2023/03/22 04:20:45;;;;;;;;;;;;;;;;;;5008468;28;20388;-92
2023/03/22 04:23:32;;;;;;;;;;;;;;;;;;5007084;28;19946;-91
2023/03/22 04:26:18;;;;;;;;;;;;;;;;;;4992324;28;19917;-90
2023/03/22 04:29:05;;;;;;;;;;;;;;;;;;5005608;28;20292;-90
2023/03/22 04:31:51;;;;;;;;;;;;;;;;;;5001118;28;19943;-84
2023/03/22 04:34:38;;;;;;;;;;;;;;;;;;5000923;28;19918;-85
2023/03/22 04:37:25;;;;;;;;;;;;;;;;;;4986706;28;19926;-86
2023/03/22 04:40:15;;;;;;;;;;;;;;;;;;4996816;28;19922;-85
2023/03/22 04:43:02;;;;;;;;;;;;;;;;;;4996837;28;19964;-86
2023/03/22 04:45:49;;;;;;;;;;;;;;;;;;4986438;28;19926;-85
2023/03/22 04:48:36;;;;;;;;;;;;;;;;;;4996642;28;19914;-85
2023/03/22 04:51:23;;;;;;;;;;;;;;;;;;4997345;28;20415;-86
2023/03/22 04:54:09;;;;;;;;;;;;;;;;;;4997445;28;19924;-83
2023/03/22 04:56:56;;;;;;;;;;;;;;;;;;5002531;28;19949;-85
2023/03/22 04:59:42;;;;;;;;;;;;;;;;;;4997802;28;19917;-84
2023/03/22 05:02:29;;;;;;;;;;;;;;;;;;5000800;28;19925;-84
2023/03/22 05:05:15;;;;;;;;;;;;;;;;;;5000438;28;20009;-85
2023/03/22 05:08:02;;;;;;;;;;;;;;;;;;5000260;28;19918;-84
2023/03/22 05:10:48;;;;;;;;;;;;;;;;;;5003347;28;19923;-86
2023/03/22 05:13:36;;;;;;;;;;;;;;;;;;4997770;28;20424;-85
2023/03/22 05:16:22;;;;;;;;;;;;;;;;;;5000202;28;19925;-88
2023/03/22 05:19:14;;;;;;;;;;;;;;;;;;5004106;28;19917;-86
2023/03/22 05:22:01;;;;;;;;;;;;;;;;;;5001805;28;19921;-89
2023/03/22 05:24:47;;;;;;;;;;;;;;;;;;4997204;28;19921;-89
2023/03/22 05:27:37;;;;;;;;;;;;;;;;;;5002129;28;20391;-87
2023/03/22 05:30:24;;;;;;;;;;;;;;;;;;4994878;28;19925;-87
2023/03/22 05:33:10;;;;;;;;;;;;;;;;;;5002979;28;20894;-89
2023/03/22 05:35:57;;;;;;;;;;;;;;;;;;4998099;28;19927;-87
2023/03/22 05:38:43;;;;;;;;;;;;;;;;;;5004623;28;19922;-88
2023/03/22 05:41:33;;;;;;;;;;;;;;;;;;4997879;28;19920;-88
2023/03/22 05:44:19;;;;;;;;;;;;;;;;;;5002651;28;19928;-86
2023/03/22 05:47:06;;;;;;;;;;;;;;;;;;4999606;28;20266;-87
2023/03/22 05:49:52;;;;;;;;;;;;;;;;;;4988361;28;19917;-91
2023/03/22 05:52:39;;;;;;;;;;;;;;;;;;5000751;28;20353;-90
2023/03/22 05:55:26;;;;;;;;;;;;;;;;;;5009335;28;19918;-93
2023/03/22 05:58:17;;;;;;;;;;;;;;;;;;4993106;28;19944;-92
2023/03/22 06:01:04;;;;;;;;;;;;;;;;;;4993513;28;19917;-91
2023/03/22 06:03:51;;;;;;;;;;;;;;;;;;5010137;28;19917;-93
2023/03/22 06:06:38;;;;;;;;;;;;;;;;;;5003461;28;19936;-95
2023/03/22 06:09:24;;;;;;;;;;;;;;;;;;5009439;28;19918;-92
2023/03/22 06:12:11;;;;;;;;;;;;;;;;;;5012608;28;20407;-93
2023/03/22 06:14:57;;;;;;;;;;;;;;;;;;5003452;28;19937;-92
2023/03/22 06:17:44;;;;;;;;;;;;;;;;;;5009878;28;19932;-92
2023/03/22 06:20:30;;;;;;;;;;;;;;;;;;5008412;28;20487;-89
2023/03/22 06:23:17;;;;;;;;;;;;;;;;;;5000139;28;19918;-91
2023/03/22 06:26:03;;;;;;;;;;;;;;;;;;5002438;28;19930;-90
2023/03/22 06:28:50;;;;;;;;;;;;;;;;;;5003420;28;19931;-90
2023/03/22 06:31:36;;;;;;;;;;;;;;;;;;4999220;28;19914;-89
2023/03/22 06:34:22;;;;;;;;;;;;;;;;;;4999482;28;19918;-89
2023/03/22 06:37:09;;;;;;;;;;;;;;;;;;5003518;28;19929;-89
2023/03/22 06:39:55;;;;;;;;;;;;;;;;;;4988749;28;19925;-89
2023/03/22 06:42:42;;;;;;;;;;;;;;;;;;4999192;28;20389;-89
2023/03/22 06:45:32;;;;;;;;;;;;;;;;;;5000597;28;19921;-89
2023/03/22 06:48:18;;;;;;;;;;;;;;;;;;5000924;28;20281;-90
2023/03/22 06:51:05;;;;;;;;;;;;;;;;;;5006201;28;20396;-91
2023/03/22 06:53:51;;;;;;;;;;;;;;;;;;4998279;28;19918;-89
2023/03/22 06:56:38;;;;;;;;;;;;;;;;;;4994932;28;20508;-91
2023/03/22 06:59:24;;;;;;;;;;;;;;;;;;5007147;28;19929;-90
2023/03/22 07:02:11;;;;;;;;;;;;;;;;;;5004632;28;19922;-91
2023/03/22 07:04:57;;;;;;;;;;;;;;;;;;5005081;28;19921;-92
2023/03/22 07:07:45;;;;;;;;;;;;;;;;;;5012705;28;19917;-93
2023/03/22 07:10:31;;;;;;;;;;;;;;;;;;5002437;28;19914;-92
2023/03/22 07:13:18;;;;;;;;;;;;;;;;;;5012392;28;19928;-94
2023/03/22 07:16:04;;;;;;;;;;;;;;;;;;5005793;28;20293;-86
2023/03/22 07:18:51;;;;;;;;;;;;;;;;;;5003890;28;19918;-91
2023/03/22 07:21:37;;;;;;;;;;;;;;;;;;4989374;28;19927;-88
2023/03/22 07:24:24;;;;;;;;;;;;;;;;;;5000448;28;19921;-88
2023/03/22 07:27:10;;;;;;;;;;;;;;;;;;4997415;28;19917;-88
2023/03/22 07:29:57;;;;;;;;;;;;;;;;;;4998178;28;19926;-88
2023/03/22 07:32:43;;;;;;;;;;;;;;;;;;5002007;28;19928;-88
2023/03/22 07:35:30;;;;;;;;;;;;;;;;;;5008706;28;19922;-88
2023/03/22 07:38:16;;;;;;;;;;;;;;;;;;5001415;28;19935;-86
2023/03/22 07:41:03;;;;;;;;;;;;;;;;;;4999606;28;19928;-88
2023/03/22 07:43:49;;;;;;;;;;;;;;;;;;5001801;28;19926;-87
2023/03/22 07:46:36;;;;;;;;;;;;;;;;;;4999567;28;19929;-88
2023/03/22 07:49:24;;;;;;;;;;;;;;;;;;5004752;28;19925;-86
2023/03/22 07:52:10;;;;;;;;;;;;;;;;;;5004794;28;19913;-87
2023/03/22 07:54:57;;;;;;;;;;;;;;;;;;4994053;28;19917;-88
2023/03/22 07:57:43;;;;;;;;;;;;;;;;;;5000874;28;19929;-87
2023/03/22 08:00:30;;;;;;;;;;;;;;;;;;5001920;28;19925;-87
2023/03/22 08:03:16;;;;;;;;;;;;;;;;;;5003151;28;20044;-87
2023/03/22 08:06:06;;;;;;;;;;;;;;;;;;5003243;28;19917;-87
2023/03/22 08:08:52;;;;;;;;;;;;;;;;;;5003389;28;19922;-87
2023/03/22 08:11:39;;;;;;;;;;;;;;;;;;4997377;28;19924;-87
2023/03/22 08:14:25;;;;;;;;;;;;;;;;;;5000009;28;20396;-88
2023/03/22 08:17:12;;;;;;;;;;;;;;;;;;4998144;28;20305;-87
2023/03/22 08:19:59;;;;;;;;;;;;;;;;;;5002349;28;19928;-88
2023/03/22 08:22:45;;;;;;;;;;;;;;;;;;4997832;28;20401;-88
2023/03/22 08:25:32;;;;;;;;;;;;;;;;;;4998570;28;19923;-87
2023/03/22 08:28:19;;;;;;;;;;;;;;;;;;4997603;28;19927;-88
2023/03/22 08:31:05;;;;;;;;;;;;;;;;;;5000084;28;19931;-88
2023/03/22 08:33:52;;;;;;;;;;;;;;;;;;5002685;28;19918;-89
2023/03/22 08:36:38;;;;;;;;;;;;;;;;;;4999384;28;20424;-89
2023/03/22 08:39:25;;;;;;;;;;;;;;;;;;5003084;28;19929;-88
2023/03/22 08:42:11;;;;;;;;;;;;;;;;;;5000744;28;19918;-89
2023/03/22 08:44:58;;;;;;;;;;;;;;;;;;4995124;28;20428;-89
2023/03/22 08:47:44;;;;;;;;;;;;;;;;;;5001536;28;19924;-89
2023/03/22 08:50:33;;;;;;;;;;;;;;;;;;5008586;28;19925;-89
2023/03/22 08:53:19;;;;;;;;;;;;;;;;;;5002652;28;19937;-88
2023/03/22 08:56:06;;;;;;;;;;;;;;;;;;5007596;28;19928;-89
2023/03/22 08:58:53;;;;;;;;;;;;;;;;;;5005470;28;19932;-90
2023/03/22 09:01:39;;;;;;;;;;;;;;;;;;4998575;28;21803;-89
2023/03/22 09:04:26;;;;;;;;;;;;;;;;;;5001072;28;20656;-89
2023/03/22 09:07:12;;;;;;;;;;;;;;;;;;4999491;28;20352;-89
2023/03/22 09:09:59;;;;;;;;;;;;;;;;;;4997666;28;19924;-87
2023/03/22 09:12:45;;;;;;;;;;;;;;;;;;5006386;28;19913;-87
2023/03/22 09:15:32;;;;;;;;;;;;;;;;;;5008852;28;19930;-88
2023/03/22 09:18:18;;;;;;;;;;;;;;;;;;5008356;28;19930;-89
2023/03/22 09:21:06;;;;;;;;;;;;;;;;;;5010738;28;19934;-87
2023/03/22 09:23:52;;;;;;;;;;;;;;;;;;5013015;28;19927;-89
2023/03/22 09:26:39;;;;;;;;;;;;;;;;;;5010521;28;20265;-89
2023/03/22 09:29:25;;;;;;;;;;;;;;;;;;5020507;28;19927;-89
2023/03/22 09:32:11;;;;;;;;;;;;;;;;;;5011596;28;19925;-89
2023/03/22 09:34:58;;;;;;;;;;;;;;;;;;5015852;28;19921;-88
2023/03/22 09:37:44;;;;;;;;;;;;;;;;;;5007338;28;19930;-89
2023/03/22 09:40:31;;;;;;;;;;;;;;;;;;5004606;28;20296;-89
2023/03/22 09:43:17;;;;;;;;;;;;;;;;;;5007184;28;20019;-88
2023/03/22 09:46:04;;;;;;;;;;;;;;;;;;5002207;28;19918;-88
2023/03/22 09:48:50;;;;;;;;;;;;;;;;;;4999843;28;20013;-89
2023/03/22 09:51:37;;;;;;;;;;;;;;;;;;5005009;28;19932;-88
2023/03/22 09:54:26;;;;;;;;;;;;;;;;;;4995008;28;19922;-86
2023/03/22 09:57:12;;;;;;;;;;;;;;;;;;4997737;28;19936;-88
2023/03/22 09:59:59;;;;;;;;;;;;;;;;;;5004367;28;19918;-87
2023/03/22 10:02:45;;;;;;;;;;;;;;;;;;5006867;28;19928;-87
2023/03/22 10:05:32;;;;;;;;;;;;;;;;;;5005796;28;19917;-86
2023/03/22 10:08:19;;;;;;;;;;;;;;;;;;5007455;28;20424;-86
2023/03/22 10:11:06;;;;;;;;;;;;;;;;;;5005485;28;19922;-87
2023/03/22 10:13:52;;;;;;;;;;;;;;;;;;4999798;28;19936;-86
2023/03/22 10:16:39;;;;;;;;;;;;;;;;;;5005931;28;19914;-86
2023/03/22 10:19:25;;;;;;;;;;;;;;;;;;5008483;28;19937;-86
2023/03/22 10:22:12;;;;;;;;;;;;;;;;;;5002699;28;19928;-87
2023/03/22 10:24:58;;;;;;;;;;;;;;;;;;5008174;28;19922;-86
2023/03/22 10:27:45;;;;;;;;;;;;;;;;;;5012626;28;19918;-87
2023/03/22 10:30:31;;;;;;;;;;;;;;;;;;5003915;28;20412;-87
2023/03/22 10:33:18;;;;;;;;;;;;;;;;;;5007346;28;19926;-88
2023/03/22 10:36:04;;;;;;;;;;;;;;;;;;4994159;28;19923;-88
2023/03/22 10:38:52;;;;;;;;;;;;;;;;;;5004639;28;19937;-88
2023/03/22 10:41:39;;;;;;;;;;;;;;;;;;5006942;28;20604;-87
2023/03/22 10:44:28;;;;;;;;;;;;;;;;;;5004686;28;19922;-87
2023/03/22 10:47:16;;;;;;;;;;;;;;;;;;5004670;28;19917;-88
2023/03/22 10:50:03;;;;;;;;;;;;;;;;;;4990462;28;19928;-87
2023/03/22 10:52:50;;;;;;;;;;;;;;;;;;5006671;28;20374;-88
2023/03/22 10:55:36;;;;;;;;;;;;;;;;;;5005960;28;19921;-88
2023/03/22 10:58:22;;;;;;;;;;;;;;;;;;5012597;28;19940;-88
2023/03/22 11:01:09;;;;;;;;;;;;;;;;;;5002907;28;19913;-87
2023/03/22 11:03:56;;;;;;;;;;;;;;;;;;5000148;28;19924;-88
2023/03/22 11:06:43;;;;;;;;;;;;;;;;;;4989488;28;19918;-88
2023/03/22 11:09:29;;;;;;;;;;;;;;;;;;4988915;28;19917;-88
2023/03/22 11:12:16;;;;;;;;;;;;;;;;;;5001416;28;19922;-88
2023/03/22 11:15:02;;;;;;;;;;;;;;;;;;5004889;28;19951;-88
2023/03/22 11:17:49;;;;;;;;;;;;;;;;;;5002213;28;19932;-89
2023/03/22 11:20:35;;;;;;;;;;;;;;;;;;5003314;28;19918;-87
2023/03/22 11:23:22;;;;;;;;;;;;;;;;;;5008076;28;20000;-87
2023/03/22 11:26:08;;;;;;;;;;;;;;;;;;4998011;28;19913;-88
2023/03/22 11:28:55;;;;;;;;;;;;;;;;;;5000548;28;19922;-87
2023/03/22 11:31:41;;;;;;;;;;;;;;;;;;4999882;28;19932;-87
2023/03/22 11:34:28;;;;;;;;;;;;;;;;;;5002699;28;20405;-88
2023/03/22 11:37:14;;;;;;;;;;;;;;;;;;4996546;28;19918;-86
2023/03/22 11:40:03;;;;;;;;;;;;;;;;;;4992098;28;19929;-87
2023/03/22 11:42:49;;;;;;;;;;;;;;;;;;4994783;28;19928;-88
2023/03/22 11:45:39;;;;;;;;;;;;;;;;;;4966258;28;19944;-89
2023/03/22 11:48:26;;;;;;;;;;;;;;;;;;5000461;28;19947;-88
2023/03/22 11:51:12;;;;;;;;;;;;;;;;;;4998907;28;19952;-88
2023/03/22 11:53:59;;;;;;;;;;;;;;;;;;4999127;28;20373;-88
2023/03/22 11:56:45;;;;;;;;;;;;;;;;;;4997383;28;19984;-87
2023/03/22 11:59:32;;;;;;;;;;;;;;;;;;4999781;28;20349;-87
2023/03/22 12:02:18;;;;;;;;;;;;;;;;;;5001576;28;19924;-88
2023/03/22 12:05:05;;;;;;;;;;;;;;;;;;4996505;28;19922;-89
2023/03/22 12:07:52;;;;;;;;;;;;;;;;;;5000289;28;19922;-88
2023/03/22 12:10:38;;;;;;;;;;;;;;;;;;5000450;28;19918;-88
2023/03/22 12:13:25;;;;;;;;;;;;;;;;;;5002527;28;20344;-88
2023/03/22 12:16:12;;;;;;;;;;;;;;;;;;5006415;28;19922;-88
2023/03/22 12:18:58;;;;;;;;;;;;;;;;;;4999499;28;20377;-89
2023/03/22 12:21:45;;;;;;;;;;;;;;;;;;5001654;28;19922;-90
2023/03/22 12:24:31;;;;;;;;;;;;;;;;;;5000919;28;19925;-89
2023/03/22 12:27:18;;;;;;;;;;;;;;;;;;5000958;28;19973;-89
2023/03/22 12:30:06;;;;;;;;;;;;;;;;;;5002329;28;19928;-86
2023/03/22 12:32:53;;;;;;;;;;;;;;;;;;4997832;28;20005;-89
2023/03/22 12:35:39;;;;;;;;;;;;;;;;;;5002541;28;19918;-89
2023/03/22 12:38:26;;;;;;;;;;;;;;;;;;5000340;28;20350;-89
2023/03/22 12:41:13;;;;;;;;;;;;;;;;;;4997628;28;19923;-89
2023/03/22 12:44:00;;;;;;;;;;;;;;;;;;5004723;28;19921;-89
2023/03/22 12:46:46;;;;;;;;;;;;;;;;;;5000625;28;19917;-88
2023/03/22 12:49:33;;;;;;;;;;;;;;;;;;5000029;28;19929;-88
2023/03/22 12:52:19;;;;;;;;;;;;;;;;;;5009580;28;19937;-84
2023/03/22 12:55:06;;;;;;;;;;;;;;;;;;5009369;28;19921;-87
2023/03/22 12:57:53;;;;;;;;;;;;;;;;;;4995935;28;20833;-87
2023/03/22 13:00:40;;;;;;;;;;;;;;;;;;4999521;28;19992;-87
2023/03/22 13:03:27;;;;;;;;;;;;;;;;;;5002313;28;19925;-88
2023/03/22 13:06:13;;;;;;;;;;;;;;;;;;5002082;28;19925;-88
2023/03/22 13:09:00;;;;;;;;;;;;;;;;;;5002130;28;19925;-88
2023/03/22 13:11:47;;;;;;;;;;;;;;;;;;5001584;28;19929;-88
2023/03/22 13:14:34;;;;;;;;;;;;;;;;;;4999335;28;21705;-88
2023/03/22 13:17:20;;;;;;;;;;;;;;;;;;4996914;28;19941;-88
2023/03/22 13:20:07;;;;;;;;;;;;;;;;;;4998670;28;20262;-88
2023/03/22 13:22:53;;;;;;;;;;;;;;;;;;5001394;28;19922;-88
2023/03/22 13:25:40;;;;;;;;;;;;;;;;;;5002873;28;19914;-89
2023/03/22 13:28:28;;;;;;;;;;;;;;;;;;4995155;28;19993;-87
2023/03/22 13:31:14;;;;;;;;;;;;;;;;;;5001830;28;19921;-85
2023/03/22 13:34:03;;;;;;;;;;;;;;;;;;5003321;28;19932;-88
2023/03/22 13:36:50;;;;;;;;;;;;;;;;;;5007006;28;19921;-88
2023/03/22 13:39:38;;;;;;;;;;;;;;;;;;5004017;28;19925;-89
2023/03/22 13:42:24;;;;;;;;;;;;;;;;;;5008016;28;20266;-89
2023/03/22 13:45:11;;;;;;;;;;;;;;;;;;5007741;28;19914;-89
2023/03/22 13:47:57;;;;;;;;;;;;;;;;;;5004139;28;19956;-89
2023/03/22 13:50:44;;;;;;;;;;;;;;;;;;5006764;28;19921;-88
2023/03/22 13:53:32;;;;;;;;;;;;;;;;;;5004254;28;19928;-89
2023/03/22 13:56:19;;;;;;;;;;;;;;;;;;5007136;28;19913;-89
2023/03/22 13:59:05;;;;;;;;;;;;;;;;;;5008194;28;19971;-89
2023/03/22 14:01:52;;;;;;;;;;;;;;;;;;5005215;28;20471;-78
2023/03/22 14:04:39;;;;;;;;;;;;;;;;;;5001745;28;19917;-78
2023/03/22 14:07:25;;;;;;;;;;;;;;;;;;5005984;28;19917;-78
2023/03/22 14:10:12;;;;;;;;;;;;;;;;;;5001389;28;19926;-78
2023/03/22 14:12:58;;;;;;;;;;;;;;;;;;5003586;28;19914;-77
2023/03/22 14:15:45;;;;;;;;;;;;;;;;;;5002304;28;19922;-77
2023/03/22 14:18:32;;;;;;;;;;;;;;;;;;5004234;28;20461;-78
2023/03/22 14:21:18;;;;;;;;;;;;;;;;;;5003551;28;19921;-77
2023/03/22 14:24:05;;;;;;;;;;;;;;;;;;5003631;28;19920;-78
2023/03/22 14:26:52;;;;;;;;;;;;;;;;;;5001857;28;19925;-78
2023/03/22 14:29:38;;;;;;;;;;;;;;;;;;5003435;28;19921;-78
2023/03/22 14:32:28;;;;;;;;;;;;;;;;;;4999999;28;20297;-78
2023/03/22 14:35:14;;;;;;;;;;;;;;;;;;5001251;28;19921;-78
2023/03/22 14:38:00;;;;;;;;;;;;;;;;;;5004591;28;20575;-77
2023/03/22 14:40:47;;;;;;;;;;;;;;;;;;4999851;28;19918;-78
2023/03/22 14:43:34;;;;;;;;;;;;;;;;;;4997473;28;19921;-79
2023/03/22 14:46:28;;;;;;;;;;;;;;;;;;5001684;28;20540;-78
2023/03/22 14:49:14;;;;;;;;;;;;;;;;;;4998211;28;19935;-77
2023/03/22 14:52:01;;;;;;;;;;;;;;;;;;5004599;28;19917;-78
2023/03/22 14:54:48;;;;;;;;;;;;;;;;;;5003111;28;19933;-79
2023/03/22 14:57:35;;;;;;;;;;;;;;;;;;5003302;28;20665;-80
2023/03/22 15:00:22;;;;;;;;;;;;;;;;;;4995199;28;20647;-77
2023/03/22 15:03:09;;;;;;;;;;;;;;;;;;5003853;28;19918;-77
2023/03/22 15:05:56;;;;;;;;;;;;;;;;;;5009004;28;19922;-78
2023/03/22 15:08:42;;;;;;;;;;;;;;;;;;4985141;28;19918;-78
2023/03/22 15:11:29;;;;;;;;;;;;;;;;;;5010094;28;19922;-78
2023/03/22 15:14:16;;;;;;;;;;;;;;;;;;5000484;28;19950;-78
2023/03/22 15:17:04;;;;;;;;;;;;;;;;;;5001356;28;20293;-79
2023/03/22 15:19:51;;;;;;;;;;;;;;;;;;4993094;28;19925;-78
2023/03/22 15:22:37;;;;;;;;;;;;;;;;;;5000012;28;19929;-79
2023/03/22 15:25:24;;;;;;;;;;;;;;;;;;4993446;28;20369;-78
2023/03/22 15:28:10;;;;;;;;;;;;;;;;;;5005635;28;19920;-79
2023/03/22 15:31:00;;;;;;;;;;;;;;;;;;5003242;28;19922;-79
2023/03/22 15:33:47;;;;;;;;;;;;;;;;;;5005217;28;19917;-78
2023/03/22 15:36:34;;;;;;;;;;;;;;;;;;4992341;28;20386;-78
2023/03/22 15:39:24;;;;;;;;;;;;;;;;;;4989956;28;19932;-78
2023/03/22 15:42:10;;;;;;;;;;;;;;;;;;4988565;28;19921;-78
2023/03/22 15:44:57;;;;;;;;;;;;;;;;;;5003221;28;20293;-78
2023/03/22 15:47:44;;;;;;;;;;;;;;;;;;4997123;28;19920;-78
2023/03/22 15:50:30;;;;;;;;;;;;;;;;;;4991144;28;20338;-78
2023/03/22 15:53:16;;;;;;;;;;;;;;;;;;4997103;28;19924;-77
2023/03/22 15:56:03;;;;;;;;;;;;;;;;;;4991955;28;20387;-78
2023/03/22 15:58:50;;;;;;;;;;;;;;;;;;4994085;28;19929;-78
2023/03/22 16:01:36;;;;;;;;;;;;;;;;;;4992587;28;19925;-78
2023/03/22 16:04:23;;;;;;;;;;;;;;;;;;5000184;28;19924;-77
2023/03/22 16:07:10;;;;;;;;;;;;;;;;;;4993502;28;19929;-77
2023/03/22 16:09:56;;;;;;;;;;;;;;;;;;5001923;28;19921;-77
2023/03/22 16:12:43;;;;;;;;;;;;;;;;;;4986840;28;19921;-78
2023/03/22 16:15:29;;;;;;;;;;;;;;;;;;5001591;28;19930;-79
2023/03/22 16:18:16;;;;;;;;;;;;;;;;;;4984994;28;19928;-78
2023/03/22 16:21:02;;;;;;;;;;;;;;;;;;4986209;28;19972;-79
2023/03/22 16:23:49;;;;;;;;;;;;;;;;;;4995643;28;19926;-78
2023/03/22 16:26:35;;;;;;;;;;;;;;;;;;4989975;28;19922;-75
2023/03/22 16:29:22;;;;;;;;;;;;;;;;;;4995177;28;20588;-78
2023/03/22 16:32:08;;;;;;;;;;;;;;;;;;4999769;28;20222;-78
2023/03/22 16:34:55;;;;;;;;;;;;;;;;;;5000032;28;19928;-78
2023/03/22 16:37:42;;;;;;;;;;;;;;;;;;4997427;28;19925;-78
2023/03/22 16:40:29;;;;;;;;;;;;;;;;;;5000104;28;19917;-79
2023/03/22 16:43:15;;;;;;;;;;;;;;;;;;4993430;28;19921;-78
2023/03/22 16:46:02;;;;;;;;;;;;;;;;;;5001580;28;19981;-79
2023/03/22 16:48:49;;;;;;;;;;;;;;;;;;5001533;28;19924;-78
2023/03/22 16:51:35;;;;;;;;;;;;;;;;;;5001069;28;19928;-79
2023/03/22 16:54:22;;;;;;;;;;;;;;;;;;5001686;28;19929;-79
2023/03/22 16:57:08;;;;;;;;;;;;;;;;;;5000675;28;19924;-78
2023/03/22 16:59:56;;;;;;;;;;;;;;;;;;4994033;28;19929;-78
2023/03/22 17:02:43;;;;;;;;;;;;;;;;;;5000278;28;19924;-79
2023/03/22 17:05:29;;;;;;;;;;;;;;;;;;5000306;28;19917;-78
2023/03/22 17:08:16;;;;;;;;;;;;;;;;;;4993761;28;19917;-76
2023/03/22 17:11:02;;;;;;;;;;;;;;;;;;5000005;28;20713;-79
2023/03/22 17:13:49;;;;;;;;;;;;;;;;;;4992605;28;19926;-78
2023/03/22 17:16:35;;;;;;;;;;;;;;;;;;5001899;28;19928;-79
2023/03/22 17:19:22;;;;;;;;;;;;;;;;;;5003948;28;20386;-78
2023/03/22 17:22:08;;;;;;;;;;;;;;;;;;5006865;28;19921;-79
2023/03/22 17:24:56;;;;;;;;;;;;;;;;;;5006117;28;19947;-77
2023/03/22 17:27:43;;;;;;;;;;;;;;;;;;4993558;28;19916;-77
2023/03/22 17:30:29;;;;;;;;;;;;;;;;;;5006636;28;19917;-78
2023/03/22 17:33:17;;;;;;;;;;;;;;;;;;4993371;28;20377;-79
2023/03/22 17:36:03;;;;;;;;;;;;;;;;;;4980072;28;19928;-83
2023/03/22 17:38:50;;;;;;;;;;;;;;;;;;5004672;28;20078;-83
2023/03/22 17:41:36;;;;;;;;;;;;;;;;;;4993838;28;19917;-82
2023/03/22 17:44:23;;;;;;;;;;;;;;;;;;5000211;28;19928;-84
2023/03/22 17:47:09;;;;;;;;;;;;;;;;;;4992071;28;20282;-83
2023/03/22 17:49:56;;;;;;;;;;;;;;;;;;5000196;28;19924;-82
2023/03/22 17:52:42;;;;;;;;;;;;;;;;;;5006191;28;19940;-88
2023/03/22 17:55:29;;;;;;;;;;;;;;;;;;5008584;28;19921;-87
2023/03/22 17:58:16;;;;;;;;;;;;;;;;;;5003418;28;19925;-86
2023/03/22 18:01:03;;;;;;;;;;;;;;;;;;5010296;28;19917;-79
2023/03/22 18:03:49;;;;;;;;;;;;;;;;;;5004509;28;20651;-78
2023/03/22 18:06:36;;;;;;;;;;;;;;;;;;4995870;28;20381;-78
2023/03/22 18:09:22;;;;;;;;;;;;;;;;;;5003422;28;20373;-85
2023/03/22 18:12:09;;;;;;;;;;;;;;;;;;5002886;28;19917;-87
2023/03/22 18:14:55;;;;;;;;;;;;;;;;;;5000477;28;19937;-85
2023/03/22 18:17:42;;;;;;;;;;;;;;;;;;4997002;28;19921;-83
2023/03/22 18:20:28;;;;;;;;;;;;;;;;;;4995492;28;20384;-82
2023/03/22 18:23:15;;;;;;;;;;;;;;;;;;5007285;28;20377;-82
2023/03/22 18:26:01;;;;;;;;;;;;;;;;;;5001020;28;19924;-83
2023/03/22 18:28:48;;;;;;;;;;;;;;;;;;4997290;28;19932;-83
2023/03/22 18:31:34;;;;;;;;;;;;;;;;;;4994421;28;19971;-84
2023/03/22 18:34:21;;;;;;;;;;;;;;;;;;4993703;28;19923;-83
2023/03/22 18:37:08;;;;;;;;;;;;;;;;;;5002282;28;20281;-83
2023/03/22 18:39:55;;;;;;;;;;;;;;;;;;4998942;28;20388;-81
2023/03/22 18:42:41;;;;;;;;;;;;;;;;;;5003576;28;19917;-87
2023/03/22 18:45:28;;;;;;;;;;;;;;;;;;5000721;28;20395;-85
2023/03/22 18:48:14;;;;;;;;;;;;;;;;;;5001058;28;19928;-78
2023/03/22 18:51:03;;;;;;;;;;;;;;;;;;5013032;28;20012;-83
2023/03/22 18:53:49;;;;;;;;;;;;;;;;;;5005755;28;20361;-83
2023/03/22 18:56:36;;;;;;;;;;;;;;;;;;5003265;28;19917;-81
2023/03/22 18:59:22;;;;;;;;;;;;;;;;;;4999612;28;19937;-83